createdAt,value
2022-10-02T00:01:59.507Z,14.70
2022-10-02T00:04:33.704Z,14.60
2022-10-02T00:07:07.052Z,14.60
2022-10-02T00:09:40.404Z,14.60
2022-10-02T00:12:12.082Z,14.60
2022-10-02T00:14:41.988Z,14.60
2022-10-02T00:17:18.299Z,14.60
2022-10-02T00:19:46.762Z,14.60
2022-10-02T00:22:31.987Z,14.60
2022-10-02T00:25:08.261Z,14.60
2022-10-02T00:27:48.497Z,14.60
2022-10-02T00:30:18.809Z,14.60
2022-10-02T00:32:59.722Z,14.60
2022-10-02T00:35:52.368Z,14.60
2022-10-02T00:38:29.545Z,14.70
2022-10-02T00:41:18.083Z,14.80
2022-10-02T00:43:55.342Z,14.90
2022-10-02T00:46:38.002Z,15.00
2022-10-02T00:49:23.856Z,15.00
2022-10-02T00:52:02.956Z,14.90
2022-10-02T00:54:49.612Z,14.90
2022-10-02T00:57:24.717Z,14.80
2022-10-02T00:59:59.949Z,14.90
2022-10-02T01:03:04.836Z,14.90
2022-10-02T01:05:34.953Z,14.90
2022-10-02T01:08:04.034Z,14.80
2022-10-02T01:10:32.718Z,14.80
2022-10-02T01:13:01.922Z,14.80
2022-10-02T01:15:33.859Z,14.80
2022-10-02T01:18:03.260Z,14.80
2022-10-02T01:20:38.051Z,14.70
2022-10-02T01:23:13.087Z,14.70
2022-10-02T01:25:43.425Z,14.70
2022-10-02T01:28:12.504Z,14.60
2022-10-02T01:30:43.889Z,14.60
2022-10-02T01:33:13.990Z,14.60
2022-10-02T01:35:42.863Z,14.60
2022-10-02T01:38:13.527Z,14.50
2022-10-02T01:40:43.635Z,14.50
2022-10-02T01:43:13.320Z,14.50
2022-10-02T01:45:54.043Z,14.40
2022-10-02T01:48:30.904Z,14.40
2022-10-02T01:51:11.939Z,14.40
2022-10-02T01:53:45.835Z,14.30
2022-10-02T01:56:19.984Z,14.20
2022-10-02T01:58:55.656Z,14.20
2022-10-02T02:01:34.218Z,14.20
2022-10-02T02:04:05.383Z,14.20
2022-10-02T02:06:35.646Z,14.10
2022-10-02T02:09:10.232Z,14.10
2022-10-02T02:11:44.547Z,14.10
2022-10-02T02:14:16.892Z,14.10
2022-10-02T02:16:46.956Z,14.00
2022-10-02T02:19:20.089Z,14.00
2022-10-02T02:21:52.420Z,13.90
2022-10-02T02:24:24.900Z,13.80
2022-10-02T02:26:56.436Z,13.80
2022-10-02T02:29:26.300Z,13.80
2022-10-02T02:31:58.074Z,13.80
2022-10-02T02:34:30.988Z,13.80
2022-10-02T02:37:03.591Z,13.80
2022-10-02T02:39:35.562Z,13.70
2022-10-02T02:42:07.559Z,13.70
2022-10-02T02:44:40.223Z,13.70
2022-10-02T02:47:12.790Z,13.70
2022-10-02T02:49:48.317Z,13.70
2022-10-02T02:52:20.562Z,13.60
2022-10-02T02:54:53.889Z,13.60
2022-10-02T02:57:28.410Z,13.60
2022-10-02T02:59:57.352Z,13.60
2022-10-02T03:02:25.831Z,13.60
2022-10-02T03:04:54.543Z,13.60
2022-10-02T03:07:23.036Z,13.60
2022-10-02T03:10:01.553Z,13.60
2022-10-02T03:12:41.999Z,13.60
2022-10-02T03:15:28.738Z,13.50
2022-10-02T03:18:18.351Z,13.50
2022-10-02T03:20:54.406Z,13.50
2022-10-02T03:23:26.988Z,13.40
2022-10-02T03:26:00.038Z,13.40
2022-10-02T03:28:54.308Z,13.30
2022-10-02T03:31:23.734Z,13.30
2022-10-02T03:33:53.701Z,13.30
2022-10-02T03:36:24.614Z,13.30
2022-10-02T03:39:19.779Z,13.30
2022-10-02T03:41:43.225Z,13.30
2022-10-02T03:44:13.066Z,13.30
2022-10-02T03:46:41.555Z,13.30
2022-10-02T03:49:09.954Z,13.30
2022-10-02T03:51:38.461Z,13.30
2022-10-02T03:54:16.438Z,13.30
2022-10-02T03:56:52.743Z,13.30
2022-10-02T03:59:31.616Z,13.30
2022-10-02T04:02:01.842Z,13.30
2022-10-02T04:04:37.890Z,13.30
2022-10-02T04:07:08.466Z,13.30
2022-10-02T04:09:40.763Z,13.30
2022-10-02T04:12:12.080Z,13.20
2022-10-02T04:14:44.624Z,13.20
2022-10-02T04:17:15.526Z,13.20
2022-10-02T04:19:46.458Z,13.20
2022-10-02T04:22:19.488Z,13.20
2022-10-02T04:24:50.727Z,13.20
2022-10-02T04:27:22.795Z,13.20
2022-10-02T04:29:56.391Z,13.20
2022-10-02T04:32:27.835Z,13.30
2022-10-02T04:34:56.272Z,13.30
2022-10-02T04:37:37.534Z,13.30
2022-10-02T04:40:21.919Z,13.30
2022-10-02T04:42:59.633Z,13.20
2022-10-02T04:45:40.394Z,13.20
2022-10-02T04:48:28.860Z,13.30
2022-10-02T04:51:02.978Z,13.30
2022-10-02T04:53:45.346Z,13.20
2022-10-02T04:56:36.512Z,13.20
2022-10-02T04:59:14.177Z,13.20
2022-10-02T05:02:03.524Z,13.10
2022-10-02T05:04:51.664Z,13.10
2022-10-02T05:07:41.291Z,13.10
2022-10-02T05:10:37.444Z,13.10
2022-10-02T05:13:14.801Z,13.10
2022-10-02T05:15:51.834Z,13.20
2022-10-02T05:18:44.154Z,13.40
2022-10-02T05:21:45.373Z,13.50
2022-10-02T05:24:34.901Z,13.10
2022-10-02T05:27:11.848Z,12.10
2022-10-02T05:30:13.542Z,11.80
2022-10-02T05:33:14.205Z,11.50
2022-10-02T05:36:00.680Z,11.20
2022-10-02T05:38:45.165Z,11.00
2022-10-02T05:41:18.831Z,10.90
2022-10-02T05:43:50.050Z,10.70
2022-10-02T05:46:23.926Z,10.60
2022-10-02T05:48:58.697Z,10.50
2022-10-02T05:51:36.937Z,10.40
2022-10-02T05:54:12.511Z,10.40
2022-10-02T05:56:44.382Z,10.30
2022-10-02T05:59:18.547Z,10.30
2022-10-02T06:01:48.429Z,10.40
2022-10-02T06:04:20.831Z,10.40
2022-10-02T06:06:53.682Z,10.60
2022-10-02T06:09:24.286Z,10.70
2022-10-02T06:11:57.520Z,10.70
2022-10-02T06:14:29.949Z,10.80
2022-10-02T06:17:02.135Z,10.90
2022-10-02T06:19:35.211Z,11.00
2022-10-02T06:22:09.318Z,11.10
2022-10-02T06:24:40.868Z,11.10
2022-10-02T06:27:14.410Z,11.20
2022-10-02T06:29:45.503Z,11.30
2022-10-02T06:32:19.388Z,11.40
2022-10-02T06:34:48.272Z,11.50
2022-10-02T06:37:35.101Z,11.60
2022-10-02T06:40:15.025Z,11.70
2022-10-02T06:42:51.326Z,11.90
2022-10-02T06:45:27.247Z,12.00
2022-10-02T06:48:03.202Z,12.30
2022-10-02T06:50:44.572Z,12.40
2022-10-02T06:53:25.543Z,12.70
2022-10-02T06:56:01.395Z,13.00
2022-10-02T06:58:40.851Z,13.40
2022-10-02T07:01:20.515Z,13.70
2022-10-02T07:04:16.786Z,14.00
2022-10-02T07:06:59.011Z,14.20
2022-10-02T07:09:42.973Z,14.40
2022-10-02T07:12:28.546Z,14.80
2022-10-02T07:15:15.318Z,14.90
2022-10-02T07:17:52.198Z,14.90
2022-10-02T07:20:46.911Z,15.00
2022-10-02T07:23:47.398Z,15.00
2022-10-02T07:26:38.307Z,15.10
2022-10-02T07:29:24.035Z,15.20
2022-10-02T07:32:05.529Z,15.40
2022-10-02T07:34:41.438Z,15.60
2022-10-02T07:37:17.951Z,15.70
2022-10-02T07:40:10.269Z,15.80
2022-10-02T07:42:59.073Z,15.80
2022-10-02T07:45:35.393Z,16.00
2022-10-02T07:48:18.969Z,16.20
2022-10-02T07:50:58.899Z,16.30
2022-10-02T07:53:32.815Z,16.50
2022-10-02T07:56:01.784Z,16.50
2022-10-02T07:58:38.383Z,16.60
2022-10-02T08:01:12.612Z,16.50
2022-10-02T08:03:44.826Z,16.50
2022-10-02T08:06:13.408Z,16.40
2022-10-02T08:08:47.703Z,16.30
2022-10-02T08:11:18.491Z,16.30
2022-10-02T08:13:50.819Z,16.30
2022-10-02T08:16:23.465Z,16.30
2022-10-02T08:18:56.023Z,16.30
2022-10-02T08:21:25.859Z,16.20
2022-10-02T08:23:59.207Z,16.20
2022-10-02T08:26:35.343Z,16.10
2022-10-02T08:29:07.534Z,16.10
2022-10-02T08:31:36.302Z,16.00
2022-10-02T08:34:14.162Z,16.10
2022-10-02T08:37:09.828Z,16.20
2022-10-02T08:40:05.161Z,16.20
2022-10-02T08:43:18.403Z,16.20
2022-10-02T08:46:13.236Z,16.30
2022-10-02T08:49:26.563Z,16.20
2022-10-02T08:52:39.146Z,16.20
2022-10-02T08:55:27.126Z,16.20
2022-10-02T08:58:12.960Z,16.20
2022-10-02T09:00:51.021Z,16.20
2022-10-02T09:04:19.739Z,16.20
2022-10-02T09:07:27.393Z,16.20
2022-10-02T09:10:27.064Z,16.20
2022-10-02T09:13:25.383Z,16.20
2022-10-02T09:16:02.285Z,16.20
2022-10-02T09:18:45.475Z,16.20
2022-10-02T09:21:17.163Z,16.20
2022-10-02T09:24:28.259Z,16.20
2022-10-02T09:27:23.762Z,16.20
2022-10-02T09:30:27.020Z,16.20
2022-10-02T09:33:27.248Z,16.30
2022-10-02T09:36:26.624Z,16.20
2022-10-02T09:39:21.479Z,16.20
2022-10-02T09:42:37.899Z,16.20
2022-10-02T09:45:36.652Z,16.30
2022-10-02T09:48:49.655Z,16.30
2022-10-02T09:51:40.228Z,16.40
2022-10-02T09:54:47.381Z,16.50
2022-10-02T09:57:52.949Z,16.50
2022-10-02T10:00:35.454Z,16.60
2022-10-02T10:03:24.738Z,16.70
2022-10-02T10:06:30.858Z,16.70
2022-10-02T10:09:41.181Z,16.60
2022-10-02T10:12:51.578Z,16.60
2022-10-02T10:15:57.608Z,16.60
2022-10-02T10:19:05.078Z,16.60
2022-10-02T10:22:09.047Z,16.60
2022-10-02T10:25:04.525Z,16.50
2022-10-02T10:27:55.413Z,16.60
2022-10-02T10:31:00.948Z,16.50
2022-10-02T10:33:55.594Z,16.50
2022-10-02T10:37:01.897Z,16.50
2022-10-02T10:40:09.937Z,16.50
2022-10-02T10:43:20.426Z,16.50
2022-10-02T10:45:58.377Z,16.50
2022-10-02T10:48:49.323Z,16.40
2022-10-02T10:51:33.758Z,16.40
2022-10-02T10:54:28.433Z,16.50
2022-10-02T10:56:58.572Z,16.50
2022-10-02T11:00:02.274Z,16.50
2022-10-02T11:03:00.476Z,16.50
2022-10-02T11:06:08.332Z,16.50
2022-10-02T11:09:05.999Z,16.50
2022-10-02T11:11:41.475Z,16.50
2022-10-02T11:14:23.828Z,16.40
2022-10-02T11:17:14.740Z,16.50
2022-10-02T11:20:05.483Z,16.50
2022-10-02T11:23:07.853Z,16.50
2022-10-02T11:25:44.992Z,16.50
2022-10-02T11:28:34.476Z,16.50
2022-10-02T11:31:17.488Z,16.50
2022-10-02T11:34:08.244Z,16.50
2022-10-02T11:36:56.775Z,16.60
2022-10-02T11:39:48.915Z,16.60
2022-10-02T11:42:55.912Z,16.60
2022-10-02T11:45:47.936Z,16.60
2022-10-02T11:48:33.223Z,16.70
2022-10-02T11:51:20.790Z,16.70
2022-10-02T11:54:02.895Z,16.80
2022-10-02T11:56:47.138Z,16.80
2022-10-02T11:59:27.407Z,16.90
2022-10-02T12:02:04.718Z,16.90
2022-10-02T12:04:41.945Z,17.10
2022-10-02T12:07:23.615Z,17.20
2022-10-02T12:10:06.543Z,17.30
2022-10-02T12:12:43.944Z,17.40
2022-10-02T12:15:25.291Z,17.50
2022-10-02T12:18:03.602Z,17.40
2022-10-02T12:21:02.719Z,17.40
2022-10-02T12:24:01.504Z,17.40
2022-10-02T12:27:00.627Z,17.30
2022-10-02T12:29:52.762Z,17.40
2022-10-02T12:32:41.718Z,17.40
2022-10-02T12:35:21.338Z,17.50
2022-10-02T12:37:56.155Z,17.50
2022-10-02T12:40:32.908Z,17.60
2022-10-02T12:43:17.498Z,17.50
2022-10-02T12:46:05.588Z,17.50
2022-10-02T12:48:58.801Z,17.50
2022-10-02T12:51:38.355Z,17.50
2022-10-02T12:54:57.864Z,17.50
2022-10-02T12:57:55.888Z,17.40
2022-10-02T13:00:26.386Z,17.40
2022-10-02T13:03:34.533Z,17.40
2022-10-02T13:06:21.389Z,17.40
2022-10-02T13:09:20.303Z,17.40
2022-10-02T13:11:59.377Z,17.40
2022-10-02T13:15:04.522Z,17.40
2022-10-02T13:17:38.422Z,17.40
2022-10-02T13:20:19.680Z,17.40
2022-10-02T13:22:54.502Z,17.40
2022-10-02T13:25:44.619Z,17.40
2022-10-02T13:28:29.597Z,17.50
2022-10-02T13:31:11.408Z,17.40
2022-10-02T13:33:54.274Z,17.50
2022-10-02T13:36:34.493Z,17.50
2022-10-02T13:39:19.601Z,17.70
2022-10-02T13:42:05.180Z,17.80
2022-10-02T13:44:41.313Z,17.80
2022-10-02T13:47:31.703Z,17.80
2022-10-02T13:50:18.542Z,17.90
2022-10-02T13:52:58.680Z,18.00
2022-10-02T13:55:28.728Z,18.10
2022-10-02T13:58:26.379Z,18.10
2022-10-02T14:01:04.547Z,18.20
2022-10-02T14:03:48.906Z,18.30
2022-10-02T14:06:22.203Z,18.20
2022-10-02T14:09:06.228Z,18.20
2022-10-02T14:11:44.301Z,18.20
2022-10-02T14:14:24.911Z,18.20
2022-10-02T14:17:01.574Z,18.20
2022-10-02T14:19:57.231Z,18.10
2022-10-02T14:22:41.671Z,18.10
2022-10-02T14:25:22.869Z,18.20
2022-10-02T14:28:13.963Z,18.20
2022-10-02T14:31:14.336Z,18.10
2022-10-02T14:33:57.680Z,18.00
2022-10-02T14:36:33.947Z,17.90
2022-10-02T14:39:11.838Z,17.80
2022-10-02T14:41:58.892Z,17.80
2022-10-02T14:44:43.822Z,17.70
2022-10-02T14:47:33.320Z,17.60
2022-10-02T14:50:23.452Z,17.60
2022-10-02T14:53:20.795Z,17.70
2022-10-02T14:56:13.453Z,17.70
2022-10-02T14:58:51.644Z,17.80
2022-10-02T15:01:24.379Z,17.80
2022-10-02T15:04:25.895Z,17.80
2022-10-02T15:07:01.404Z,17.70
2022-10-02T15:09:36.982Z,17.60
2022-10-02T15:12:15.210Z,17.60
2022-10-02T15:15:04.083Z,17.40
2022-10-02T15:18:00.355Z,17.40
2022-10-02T15:20:38.287Z,17.30
2022-10-02T15:23:11.930Z,17.30
2022-10-02T15:26:03.588Z,17.30
2022-10-02T15:28:43.890Z,17.40
2022-10-02T15:31:21.856Z,17.40
2022-10-02T15:34:00.191Z,17.40
2022-10-02T15:36:44.602Z,17.40
2022-10-02T15:39:37.594Z,17.30
2022-10-02T15:42:09.377Z,17.20
2022-10-02T15:44:59.380Z,17.20
2022-10-02T15:47:40.799Z,17.10
2022-10-02T15:50:23.623Z,17.10
2022-10-02T15:52:59.353Z,17.00
2022-10-02T15:55:31.533Z,17.00
2022-10-02T15:58:12.019Z,16.90
2022-10-02T16:01:01.787Z,16.90
2022-10-02T16:03:35.352Z,16.80
2022-10-02T16:06:10.191Z,16.70
2022-10-02T16:09:01.900Z,16.60
2022-10-02T16:11:59.035Z,16.50
2022-10-02T16:14:37.257Z,16.50
2022-10-02T16:17:24.221Z,16.40
2022-10-02T16:20:23.399Z,16.40
2022-10-02T16:23:00.021Z,16.30
2022-10-02T16:25:43.114Z,16.30
2022-10-02T16:28:20.332Z,16.10
2022-10-02T16:31:07.644Z,16.10
2022-10-02T16:33:48.915Z,16.10
2022-10-02T16:36:31.985Z,16.00
2022-10-02T16:39:17.599Z,16.00
2022-10-02T16:42:01.717Z,15.90
2022-10-02T16:44:52.928Z,15.90
2022-10-02T16:47:28.983Z,15.80
2022-10-02T16:50:01.198Z,15.80
2022-10-02T16:52:33.118Z,15.80
2022-10-02T16:55:13.014Z,15.70
2022-10-02T16:58:11.196Z,15.60
2022-10-02T17:00:49.627Z,15.60
2022-10-02T17:03:28.999Z,15.50
2022-10-02T17:06:04.341Z,15.40
2022-10-02T17:08:37.358Z,15.40
2022-10-02T17:11:18.416Z,15.40
2022-10-02T17:14:06.346Z,15.40
2022-10-02T17:16:38.192Z,15.40
2022-10-02T17:19:22.260Z,15.40
2022-10-02T17:21:53.995Z,15.40
2022-10-02T17:24:31.989Z,15.40
2022-10-02T17:27:14.160Z,15.40
2022-10-02T17:29:52.887Z,15.40
2022-10-02T17:32:49.779Z,15.40
2022-10-02T17:35:31.731Z,15.30
2022-10-02T17:38:24.083Z,15.30
2022-10-02T17:40:58.883Z,15.30
2022-10-02T17:43:35.256Z,15.30
2022-10-02T17:46:21.101Z,15.30
2022-10-02T17:48:55.370Z,15.30
2022-10-02T17:55:01.799Z,15.30
2022-10-02T17:57:42.444Z,15.20
2022-10-02T18:00:15.049Z,15.30
2022-10-02T18:03:15.028Z,15.30
2022-10-02T18:05:52.316Z,15.20
2022-10-02T18:08:36.934Z,15.20
2022-10-02T18:11:07.942Z,15.20
2022-10-02T18:13:46.819Z,15.20
2022-10-02T18:16:43.396Z,15.20
2022-10-02T18:19:29.175Z,15.20
2022-10-02T18:22:10.458Z,15.10
2022-10-02T18:24:58.582Z,15.10
2022-10-02T18:27:42.115Z,15.10
2022-10-02T18:30:16.055Z,15.00
2022-10-02T18:33:16.292Z,15.10
2022-10-02T18:35:54.095Z,15.10
2022-10-02T18:38:29.658Z,15.10
2022-10-02T18:41:09.687Z,15.10
2022-10-02T18:43:51.218Z,15.00
2022-10-02T18:46:38.327Z,15.00
2022-10-02T18:49:19.522Z,15.00
2022-10-02T18:52:09.522Z,15.00
2022-10-02T18:54:45.707Z,15.00
2022-10-02T18:57:38.488Z,14.90
2022-10-02T19:00:17.071Z,14.80
2022-10-02T19:03:02.676Z,14.80
2022-10-02T19:05:32.973Z,14.80
2022-10-02T19:08:14.952Z,14.70
2022-10-02T19:10:46.739Z,14.70
2022-10-02T19:13:28.816Z,14.70
2022-10-02T19:16:01.258Z,14.60
2022-10-02T19:18:32.903Z,14.60
2022-10-02T19:21:06.646Z,14.60
2022-10-02T19:23:38.410Z,14.60
2022-10-02T19:26:17.302Z,14.60
2022-10-02T19:28:49.604Z,14.60
2022-10-02T19:31:23.650Z,14.60
2022-10-02T19:33:54.854Z,14.60
2022-10-02T19:36:26.284Z,14.60
2022-10-02T19:38:56.779Z,14.50
2022-10-02T19:41:25.238Z,14.50
2022-10-02T19:43:58.172Z,14.50
2022-10-02T19:46:33.419Z,14.50
2022-10-02T19:49:02.472Z,14.50
2022-10-02T19:51:43.308Z,14.50
2022-10-02T19:54:15.988Z,14.50
2022-10-02T19:56:45.703Z,14.40
2022-10-02T19:59:19.001Z,14.40
2022-10-02T20:01:51.065Z,14.50
2022-10-02T20:04:22.224Z,14.40
2022-10-02T20:06:53.639Z,14.40
2022-10-02T20:09:26.308Z,14.40
2022-10-02T20:11:56.494Z,14.40
2022-10-02T20:14:29.187Z,14.40
2022-10-02T20:17:12.723Z,14.40
2022-10-02T20:19:45.283Z,14.40
2022-10-02T20:22:19.000Z,14.30
2022-10-02T20:24:51.887Z,14.30
2022-10-02T20:27:23.935Z,14.20
2022-10-02T20:29:57.606Z,14.20
2022-10-02T20:32:28.966Z,14.00
2022-10-02T20:35:01.609Z,14.00
2022-10-02T20:37:34.947Z,14.00
2022-10-02T20:40:11.640Z,13.90
2022-10-02T20:42:47.526Z,13.90
2022-10-02T20:45:18.205Z,13.90
2022-10-02T20:48:21.644Z,13.80
2022-10-02T20:50:56.717Z,13.80
2022-10-02T20:54:09.158Z,13.70
2022-10-02T20:57:14.599Z,13.60
2022-10-02T21:00:09.927Z,13.50
2022-10-02T21:02:55.684Z,13.50
2022-10-02T21:05:54.355Z,13.40
2022-10-02T21:08:53.126Z,13.30
2022-10-02T21:11:45.528Z,13.30
2022-10-02T21:14:30.077Z,13.30
2022-10-02T21:17:22.556Z,13.30
2022-10-02T21:20:46.214Z,13.20
2022-10-02T21:23:55.523Z,13.10
2022-10-02T21:26:49.295Z,13.10
2022-10-02T21:29:35.460Z,13.10
2022-10-02T21:32:29.542Z,13.10
2022-10-02T21:35:08.639Z,13.20
2022-10-02T21:37:47.247Z,13.00
2022-10-02T21:41:01.505Z,13.00
2022-10-02T21:44:18.354Z,13.00
2022-10-02T21:47:05.611Z,13.00
2022-10-02T21:50:02.259Z,13.00
2022-10-02T21:53:00.418Z,13.00
2022-10-02T21:56:06.375Z,13.30
2022-10-02T21:59:05.686Z,13.60
2022-10-02T22:02:08.914Z,13.90
2022-10-02T22:05:19.556Z,14.20
2022-10-02T22:07:53.572Z,14.50
2022-10-02T22:10:25.572Z,14.50
2022-10-02T22:13:06.153Z,14.60
2022-10-02T22:15:42.614Z,14.70
2022-10-02T22:18:17.122Z,14.80
2022-10-02T22:20:55.375Z,14.80
2022-10-02T22:23:48.020Z,15.00
2022-10-02T22:26:26.809Z,15.00
2022-10-02T22:28:57.294Z,15.00
2022-10-02T22:31:34.586Z,15.00
2022-10-02T22:34:30.651Z,15.00
2022-10-02T22:37:37.690Z,15.00
2022-10-02T22:40:11.123Z,14.80
2022-10-02T22:42:42.143Z,14.70
2022-10-02T22:45:18.296Z,14.60
2022-10-02T22:47:52.478Z,14.60
2022-10-02T22:50:24.311Z,14.70
2022-10-02T22:52:55.387Z,14.70
2022-10-02T22:55:29.285Z,14.70
2022-10-02T22:58:03.035Z,14.70
2022-10-02T23:00:35.267Z,14.70
2022-10-02T23:03:09.375Z,14.70
2022-10-02T23:05:42.719Z,14.70
2022-10-02T23:08:17.490Z,14.80
2022-10-02T23:10:49.167Z,14.90
2022-10-02T23:13:23.381Z,14.90
2022-10-02T23:15:56.107Z,15.00
2022-10-02T23:18:37.416Z,15.10
2022-10-02T23:21:19.190Z,15.20
2022-10-02T23:23:53.599Z,15.30
2022-10-02T23:26:31.435Z,15.30
2022-10-02T23:29:13.396Z,15.40
2022-10-02T23:31:47.023Z,15.40
2022-10-02T23:34:20.723Z,15.30
2022-10-02T23:36:51.772Z,15.30
2022-10-02T23:39:24.718Z,15.20
2022-10-02T23:41:58.415Z,15.10
2022-10-02T23:44:38.329Z,15.00
2022-10-02T23:47:21.218Z,14.90
2022-10-02T23:49:53.140Z,14.90
2022-10-02T23:52:37.845Z,14.90
2022-10-02T23:55:23.175Z,15.00
2022-10-02T23:58:12.590Z,15.10
